• Join FlightAware (Why Join?)
  • Login
  • US Flag 
03:00AM EDT


 

Airport Tracker/Info


-or-


 

Live Flight TrackerFlight Track Log ✈ SWA1524 ✈ 15-Jul-2013 ✈ KBOS - KBNA

Flight Track Log - Related Links

Times and Time Zones

All times are in EDT time to prevent confusion due to time zone crossing. See the SWA1524 flight status page for this flight to view local times or setup timezone preferences in your user account.

Time Position Orientation Groundspeed Altitude Reporting Facility
EDT Latitude Longitude Course Direction KTS MPH feet Rate Location/Type
01:11PM 42.3667 -70.9667 90° East 180 207 900  Level KA90
01:12PM 42.3667 -70.9333 90° East 177 204 1,800 1,980 Climbing KA90
01:13PM 42.3833 -70.8500 75° East 241 277 4,100 2,520 Climbing KA90
01:14PM 42.3833 -70.7500 90° East 290 334 6,900 2,880 Climbing KA90
01:15PM 42.3147 -70.7414 175° South 285 328 9,300 2,520 Climbing Boston Center
01:16PM 42.2911 -70.8375 252° West 285 328 11,500 2,220 Climbing Boston Center
01:17PM 42.2950 -70.9608 272° West 299 344 13,800 2,400 Climbing Boston Center
01:18PM 42.3089 -71.0897 278° West 335 386 16,300 2,100 Climbing Boston Center
01:19PM 42.3208 -71.2242 277° West 357 411 18,000 1,620 Climbing Boston Center
01:20PM 42.3389 -71.3617 280° West 372 428 19,600 1,500 Climbing Boston Center
01:21PM 42.3444 -71.5075 273° West 377 434 21,000 1,560 Climbing Boston Center
01:22PM 42.3164 -71.6594 256° West 390 449 22,800 1,500 Climbing Boston Center
01:23PM 42.2944 -71.8031 258° West 402 463 24,100 1,020 Climbing Boston Center
01:24PM 42.2661 -71.9575 256° West 402 463 24,900 960 Climbing Boston Center
01:25PM 42.2039 -72.0953 239° Southwest 422 486 26,300 1,200 Climbing Boston Center
01:26PM 42.1272 -72.2664 239° Southwest 435 501 27,600 1,140 Climbing Boston Center
01:27PM 42.0647 -72.4064 239° Southwest 447 514 28,600 1,020 Climbing Boston Center
01:28PM 41.9961 -72.5575 239° Southwest 459 528 29,700 1,500 Climbing Boston Center
01:29PM 41.9375 -72.6997 241° Southwest 459 528 31,600 1,500 Climbing Boston Center
01:30PM 41.8872 -72.8108 239° Southwest 453 521 32,700 1,140 Climbing Boston Center
01:31PM 41.8072 -72.9775 237° Southwest 448 516 33,900 960 Climbing Boston Center
01:32PM 41.7189 -73.1436 235° Southwest 460 529 35,100 780 Climbing Boston Center
01:33PM 41.6322 -73.3039 234° Southwest 460 529 35,900 300 Climbing Boston Center
01:35PM 41.5211 -73.5172 235° Southwest 448 516 36,000  Climbing New York Center
01:36PM 41.4472 -73.6497 233° Southwest 453 521 36,000  Level New York Center
01:37PM 41.3753 -73.7819 234° Southwest 453 521 36,000  Level New York Center
01:38PM 41.3050 -73.9142 235° Southwest 446 513 36,000  Level New York Center
01:39PM 41.2306 -74.0486 234° Southwest 446 513 36,000  Level New York Center
01:40PM 41.1583 -74.1800 234° Southwest 446 513 36,000  Level New York Center
01:41PM 41.0836 -74.3083 232° Southwest 446 513 36,000  Level New York Center
01:42PM 41.0108 -74.4392 234° Southwest 446 513 36,000  Level New York Center
01:43PM 40.9381 -74.5700 234° Southwest 451 519 36,000  Level New York Center
01:44PM 40.8669 -74.7031 235° Southwest 451 519 36,000  Level New York Center
01:45PM 40.7939 -74.8306 233° Southwest 451 519 36,000  Level New York Center
01:46PM 40.7328 -74.9692 240° Southwest 445 512 36,000  Level New York Center
01:47PM 40.6669 -75.1156 239° Southwest 445 512 36,000  Level New York Center
01:48PM 40.6036 -75.2539 239° Southwest 450 518 36,000  Level New York Center
01:49PM 40.5400 -75.3917 239° Southwest 450 518 36,000  Level New York Center
01:50PM 40.4781 -75.5350 240° Southwest 450 518 36,000  Level New York Center
01:51PM 40.4186 -75.6589 238° Southwest 459 528 36,000  Level New York Center
01:52PM 40.3567 -75.7961 239° Southwest 454 522 36,000  Level New York Center
01:53PM 40.2792 -75.9483 236° Southwest 454 522 36,000  Level New York Center
01:54PM 40.2144 -76.0903 239° Southwest 459 528 36,000  Level New York Center
01:55PM 40.1672 -76.2144 244° Southwest 454 522 36,000  Level New York Center
01:56PM 40.1122 -76.3647 244° Southwest 454 522 36,000  Level New York Center
01:58PM 40.0047 -76.6639 245° Southwest 460 529 36,000  Level Washington Center
01:59PM 39.9514 -76.8122 245° Southwest 460 529 36,000  Level Washington Center
02:00PM 39.8911 -76.9678 243° Southwest 455 524 36,000  Level Washington Center
02:01PM 39.8394 -77.1156 246° West 455 524 36,000  Level Washington Center
02:02PM 39.7856 -77.2628 245° Southwest 455 524 36,000  Level Washington Center
02:03PM 39.7314 -77.4072 244° Southwest 455 524 36,000  Level Washington Center
02:04PM 39.6789 -77.5544 245° Southwest 455 524 36,000  Level Washington Center
02:05PM 39.6244 -77.7011 244° Southwest 455 524 36,000  Level Washington Center
02:06PM 39.5675 -77.8475 243° Southwest 460 529 36,000  Level Washington Center
02:07PM 39.5125 -77.9964 244° Southwest 460 529 36,000  Level Washington Center
02:08PM 39.4597 -78.1397 245° Southwest 460 529 36,000  Level Washington Center
02:09PM 39.4044 -78.2856 244° Southwest 460 529 36,000  Level Washington Center
02:10PM 39.3489 -78.4311 244° Southwest 460 529 36,000  Level Washington Center
02:11PM 39.2956 -78.5739 244° Southwest 460 529 36,000  Level Washington Center
02:12PM 39.2378 -78.7161 242° Southwest 460 529 36,000  Level Washington Center
02:13PM 39.1839 -78.8586 244° Southwest 455 524 36,000  Level Washington Center
02:14PM 39.1278 -79.0006 243° Southwest 455 524 36,000  Level Washington Center
02:15PM 39.0736 -79.1425 244° Southwest 450 518 36,000  Level Washington Center
02:16PM 39.0172 -79.2867 243° Southwest 450 518 36,000  Level Washington Center
02:17PM 38.9608 -79.4253 242° Southwest 450 518 36,000  Level Washington Center
02:18PM 38.9039 -79.5664 243° Southwest 445 512 36,000  Level Washington Center
02:19PM 38.8511 -79.7128 245° Southwest 451 519 36,000  Level Washington Center
02:20PM 38.7633 -79.9219 242° Southwest 447 514 36,000  Level Indianapolis Center
02:21PM 38.7069 -80.0631 243° Southwest 444 511 36,000  Level Indianapolis Center
02:22PM 38.6547 -80.2069 245° Southwest 444 511 36,000  Level Indianapolis Center
02:24PM 38.6253 -80.3622 256° West 449 517 36,000  Level Indianapolis Center
02:25PM 38.5972 -80.5158 257° West 445 512 36,000  Level Indianapolis Center
02:26PM 38.5594 -80.6683 252° West 449 517 36,000  Level Indianapolis Center
02:27PM 38.5150 -80.8508 253° West 448 516 36,000  Level Indianapolis Center
02:28PM 38.4783 -81.0044 253° West 450 518 36,000  Level Indianapolis Center
02:29PM 38.4386 -81.1592 252° West 453 521 36,000  Level Indianapolis Center
02:30PM 38.3969 -81.3256 252° West 455 524 36,000  Level Indianapolis Center
02:31PM 38.3619 -81.4703 253° West 457 526 36,000  Level Indianapolis Center
02:32PM 38.3231 -81.6275 253° West 460 529 36,000  Level Indianapolis Center
02:33PM 38.2831 -81.7817 252° West 457 526 36,000  Level Indianapolis Center
02:34PM 38.2442 -81.9383 253° West 461 531 36,000  Level Indianapolis Center
02:35PM 38.2050 -82.0944 252° West 463 533 36,000  Level Indianapolis Center
02:36PM 38.1644 -82.2492 252° West 461 531 36,000  Level Indianapolis Center
02:37PM 38.1142 -82.4342 251° West 461 531 36,000  Level Indianapolis Center
02:38PM 38.0514 -82.5742 240° Southwest 459 528 36,000  Level Indianapolis Center
02:39PM 37.9881 -82.7158 240° Southwest 461 531 36,000  Level Indianapolis Center
02:40PM 37.9258 -82.8572 241° Southwest 460 529 36,000  Level Indianapolis Center
02:41PM 37.8628 -82.9986 241° Southwest 462 532 36,000  Level Indianapolis Center
02:42PM 37.7886 -83.1633 240° Southwest 462 532 36,000 -300 Level Indianapolis Center
02:43PM 37.7261 -83.3033 241° Southwest 460 529 35,500 -780 Descending Indianapolis Center
02:44PM 37.6617 -83.4442 240° Southwest 462 532 34,500 -780 Descending Indianapolis Center
02:45PM 37.5989 -83.5839 240° Southwest 460 529 34,000 -300 Descending Indianapolis Center
02:46PM 37.5331 -83.7250 240° Southwest 466 536 34,000  Level Indianapolis Center
02:47PM 37.4611 -83.8581 236° Southwest 465 535 34,000 -420 Level Indianapolis Center
02:48PM 37.3639 -84.0064 231° Southwest 470 541 33,200 -840 Descending Indianapolis Center
02:49PM 37.2825 -84.1331 231° Southwest 469 540 32,300 -960 Descending Indianapolis Center
02:50PM 37.2028 -84.2589 232° Southwest 463 533 31,300 -960 Descending Indianapolis Center
02:51PM 37.1225 -84.3869 232° Southwest 467 537 30,400 -960 Descending Indianapolis Center
02:52PM 37.0561 -84.5258 239° Southwest 468 539 29,400 -1,020 Descending Indianapolis Center
02:53PM 37.0067 -84.6769 248° West 460 529 28,400 -1,020 Descending Indianapolis Center
02:54PM 36.9544 -84.8247 246° West 464 534 27,400 -1,020 Descending Indianapolis Center
02:55PM 36.8942 -84.9992 247° West 459 528 26,300 -1,080 Descending Indianapolis Center
02:56PM 36.8419 -85.1433 246° West 457 526 25,200 -1,140 Descending Indianapolis Center
02:58PM 36.7917 -85.2836 246° West 447 514 24,000 -1,680 Descending Indianapolis Center
02:59PM 36.7428 -85.4186 246° West 429 494 21,800 -2,220 Descending Indianapolis Center
03:00PM 36.6856 -85.5400 240° Southwest 410 472 19,500 -2,220 Descending Indianapolis Center
03:01PM 36.6289 -85.6594 239° Southwest 403 464 17,300 -2,580 Descending Indianapolis Center
03:02PM 36.5625 -85.8003 240° Southwest 396 456 14,300 -2,640 Descending Indianapolis Center
03:03PM 36.5139 -85.9028 239° Southwest 390 449 11,900 -1,980 Descending Indianapolis Center
03:04PM 36.4603 -86.0131 239° Southwest 374 430 10,300 -1,140 Descending Indianapolis Center
03:05PM 36.4214 -86.1294 247° West 306 352 9,600 -1,020 Descending Indianapolis Center
03:06PM 36.3997 -86.2058 251° West 296 341 8,500 -1,140 Descending Memphis Center
03:07PM 36.3731 -86.2872 248° West 291 335 7,600 -1,080 Descending Memphis Center
03:08PM 36.3469 -86.3761 250° West 286 329 6,400 -1,320 Descending Memphis Center
03:09PM 36.3203 -86.4600 248° West 274 315 5,000 -1,440 Descending Memphis Center
03:10PM 36.2767 -86.5314 233° Southwest 268 308 3,600 -1,440 Descending Memphis Center